createdAt,value
2016-12-07T00:00:44.877Z,-2.61
2016-12-07T00:01:44.533Z,-2.52
2016-12-07T00:02:44.790Z,-2.67
2016-12-07T00:03:44.441Z,-2.66
2016-12-07T00:04:44.702Z,-2.63
2016-12-07T00:05:44.358Z,-2.63
2016-12-07T00:06:44.315Z,-2.73
2016-12-07T00:07:44.571Z,-2.68
2016-12-07T00:08:44.228Z,-2.77
2016-12-07T00:09:44.482Z,-2.74
2016-12-07T00:10:44.138Z,-2.74
2016-12-07T00:11:44.400Z,-2.86
2016-12-07T00:12:44.354Z,-2.82
2016-12-07T00:13:44.304Z,-2.81
2016-12-07T00:14:44.263Z,-2.82
2016-12-07T00:15:44.217Z,-2.85
2016-12-07T00:16:43.871Z,-2.82
2016-12-07T00:17:44.135Z,-2.81
2016-12-07T00:18:44.089Z,-2.78
2016-12-07T00:19:44.052Z,-2.78
2016-12-07T00:20:43.700Z,-2.71
2016-12-07T00:21:43.659Z,-2.74
2016-12-07T00:22:43.614Z,-2.74
2016-12-07T00:23:43.892Z,-2.67
2016-12-07T00:24:43.826Z,-2.77
2016-12-07T00:25:43.490Z,-2.77
2016-12-07T00:26:43.141Z,-2.7
2016-12-07T00:27:43.700Z,-2.77
2016-12-07T00:28:43.661Z,-2.74
2016-12-07T00:29:43.307Z,-2.78
2016-12-07T00:30:43.604Z,-2.77
2016-12-07T00:31:43.537Z,-2.81
2016-12-07T00:32:43.182Z,-2.85
2016-12-07T00:33:43.134Z,-2.86
2016-12-07T00:34:43.401Z,-2.85
2016-12-07T00:35:43.353Z,-2.92
2016-12-07T00:36:43.333Z,-3.02
2016-12-07T00:37:42.963Z,-2.86
2016-12-07T00:38:43.224Z,-2.85
2016-12-07T00:39:42.874Z,-2.88
2016-12-07T00:40:42.532Z,-2.96
2016-12-07T00:41:43.096Z,-2.96
2016-12-07T00:42:43.076Z,-2.94
2016-12-07T00:43:43.004Z,-2.97
2016-12-07T00:44:42.662Z,-2.89
2016-12-07T00:45:42.616Z,-3
2016-12-07T00:46:42.573Z,-3.02
2016-12-07T00:47:42.228Z,-2.97
2016-12-07T00:48:42.787Z,-2.99
2016-12-07T00:49:42.438Z,-3.06
2016-12-07T00:50:42.399Z,-2.94
2016-12-07T00:51:42.656Z,-3.07
2016-12-07T00:52:42.615Z,-3.02
2016-12-07T00:53:42.264Z,-3.1
2016-12-07T00:54:42.225Z,-3.07
2016-12-07T00:55:42.188Z,-3.03
2016-12-07T00:56:42.134Z,-3.17
2016-12-07T00:57:42.394Z,-3.05
2016-12-07T00:58:42.052Z,-3.09
2016-12-07T00:59:42.007Z,-3.14
2016-12-07T01:00:42.264Z,-3.23
2016-12-07T01:01:42.224Z,-3.2
2016-12-07T01:02:41.878Z,-3.31
2016-12-07T01:03:42.133Z,-3.33
2016-12-07T01:04:42.102Z,-3.41
2016-12-07T01:05:41.745Z,-3.39
2016-12-07T01:06:42.003Z,-3.38
2016-12-07T01:07:41.966Z,-3.45
2016-12-07T01:08:41.920Z,-3.48
2016-12-07T01:09:41.872Z,-3.54
2016-12-07T01:10:41.528Z,-3.48
2016-12-07T01:11:41.492Z,-3.56
2016-12-07T01:12:41.749Z,-3.53
2016-12-07T01:13:41.701Z,-3.57
2016-12-07T01:14:41.657Z,-3.54
2016-12-07T01:15:41.616Z,-3.62
2016-12-07T01:16:41.565Z,-3.63
2016-12-07T01:17:41.526Z,-3.76
2016-12-07T01:18:41.483Z,-3.69
2016-12-07T01:19:41.134Z,-3.64
2016-12-07T01:20:41.091Z,-3.72
2016-12-07T01:21:41.352Z,-3.86
2016-12-07T01:22:41.001Z,-3.91
2016-12-07T01:23:40.657Z,-3.93
2016-12-07T01:24:41.218Z,-3.99
2016-12-07T01:25:41.177Z,-4.06
2016-12-07T01:26:40.829Z,-4.1
2016-12-07T01:27:41.092Z,-4.03
2016-12-07T01:28:41.046Z,-4.07
2016-12-07T01:29:40.239Z,-4.07
2016-12-07T01:30:40.498Z,-4.18
2016-12-07T01:31:40.455Z,-4.14
2016-12-07T01:32:40.435Z,-4.21
2016-12-07T01:33:40.067Z,-4.28
2016-12-07T01:34:40.323Z,-4.25
2016-12-07T01:35:40.281Z,-4.32
2016-12-07T01:36:40.248Z,-4.38
2016-12-07T01:37:39.890Z,-4.33
2016-12-07T01:38:39.850Z,-4.39
2016-12-07T01:39:39.803Z,-4.36
2016-12-07T01:40:40.068Z,-4.43
2016-12-07T01:41:40.013Z,-4.38
2016-12-07T01:42:39.675Z,-4.42
2016-12-07T01:43:39.929Z,-4.4
2016-12-07T01:44:39.888Z,-4.42
2016-12-07T01:45:39.538Z,-4.38
2016-12-07T01:46:39.496Z,-4.42
2016-12-07T01:47:39.752Z,-4.43
2016-12-07T01:48:39.720Z,-4.49
2016-12-07T01:49:39.663Z,-4.46
2016-12-07T01:50:39.621Z,-4.49
2016-12-07T01:51:39.578Z,-4.57
2016-12-07T01:52:39.527Z,-4.53
2016-12-07T01:53:39.489Z,-4.57
2016-12-07T01:54:39.440Z,-4.6
2016-12-07T01:55:39.402Z,-4.69
2016-12-07T01:56:39.049Z,-4.63
2016-12-07T01:57:39.005Z,-4.58
2016-12-07T01:58:38.959Z,-4.65
2016-12-07T01:59:39.221Z,-4.58
2016-12-07T02:00:39.178Z,-4.71
2016-12-07T02:01:39.129Z,-4.68
2016-12-07T02:02:39.084Z,-4.69
2016-12-07T02:03:39.043Z,-4.69
2016-12-07T02:04:38.999Z,-4.72
2016-12-07T02:05:38.653Z,-4.61
2016-12-07T02:06:38.905Z,-4.68
2016-12-07T02:07:38.863Z,-4.71
2016-12-07T02:08:38.820Z,-4.63
2016-12-07T02:09:38.775Z,-4.71
2016-12-07T02:10:38.730Z,-4.71
2016-12-07T02:11:38.686Z,-4.69
2016-12-07T02:12:38.342Z,-4.67
2016-12-07T02:13:38.597Z,-4.67
2016-12-07T02:14:38.253Z,-4.6
2016-12-07T02:15:38.507Z,-4.67
2016-12-07T02:16:38.465Z,-4.68
2016-12-07T02:17:38.120Z,-4.69
2016-12-07T02:18:38.374Z,-4.65
2016-12-07T02:19:38.332Z,-4.71
2016-12-07T02:20:38.288Z,-4.74
2016-12-07T02:21:37.940Z,-4.74
2016-12-07T02:22:37.898Z,-4.67
2016-12-07T02:23:38.156Z,-4.75
2016-12-07T02:24:37.809Z,-4.69
2016-12-07T02:25:38.064Z,-4.78
2016-12-07T02:26:38.024Z,-4.81
2016-12-07T02:27:37.978Z,-4.81
2016-12-07T02:28:37.935Z,-4.79
2016-12-07T02:29:37.889Z,-4.81
2016-12-07T02:30:37.844Z,-4.89
2016-12-07T02:31:37.800Z,-4.93
2016-12-07T02:32:37.759Z,-4.79
2016-12-07T02:33:37.712Z,-4.79
2016-12-07T02:34:37.667Z,-4.75
2016-12-07T02:35:37.620Z,-4.85
2016-12-07T02:36:37.580Z,-4.9
2016-12-07T02:37:37.539Z,-4.96
2016-12-07T02:38:37.487Z,-4.92
2016-12-07T02:39:37.443Z,-4.85
2016-12-07T02:40:37.399Z,-4.9
2016-12-07T02:41:37.357Z,-4.83
2016-12-07T02:42:37.007Z,-4.93
2016-12-07T02:43:36.964Z,-4.85
2016-12-07T02:44:37.222Z,-4.81
2016-12-07T02:45:36.876Z,-4.95
2016-12-07T02:46:36.833Z,-4.92
2016-12-07T02:47:36.789Z,-4.89
2016-12-07T02:48:37.047Z,-4.92
2016-12-07T02:49:37.000Z,-4.92
2016-12-07T02:50:36.958Z,-4.86
2016-12-07T02:51:36.909Z,-4.9
2016-12-07T02:52:36.868Z,-4.96
2016-12-07T02:53:36.820Z,-4.95
2016-12-07T02:54:36.778Z,-4.92
2016-12-07T02:55:36.733Z,-5.04
2016-12-07T02:56:36.688Z,-5.06
2016-12-07T02:57:36.342Z,-5
2016-12-07T02:58:36.299Z,-4.99
2016-12-07T02:59:36.559Z,-5.04
2016-12-07T03:00:36.511Z,-5.04
2016-12-07T03:01:36.164Z,-5.07
2016-12-07T03:02:36.119Z,-5.03
2016-12-07T03:03:36.377Z,-5.03
2016-12-07T03:04:36.339Z,-5.03
2016-12-07T03:05:36.287Z,-5.04
2016-12-07T03:06:36.249Z,-5.04
2016-12-07T03:07:36.201Z,-4.99
2016-12-07T03:08:35.854Z,-5.04
2016-12-07T03:09:36.112Z,-5
2016-12-07T03:10:36.069Z,-4.99
2016-12-07T03:11:36.023Z,-5
2016-12-07T03:12:35.981Z,-5.06
2016-12-07T03:13:35.934Z,-5.08
2016-12-07T03:14:35.899Z,-5.04
2016-12-07T03:15:35.846Z,-5.06
2016-12-07T03:16:35.802Z,-5.06
2016-12-07T03:17:35.760Z,-5.04
2016-12-07T03:18:35.716Z,-5.03
2016-12-07T03:19:35.667Z,-5.04
2016-12-07T03:20:35.622Z,-5.04
2016-12-07T03:21:35.578Z,-4.99
2016-12-07T03:22:35.533Z,-5.06
2016-12-07T03:23:35.487Z,-5.04
2016-12-07T03:24:35.443Z,-5.04
2016-12-07T03:25:35.400Z,-5.04
2016-12-07T03:26:35.353Z,-5.06
2016-12-07T03:27:35.309Z,-4.97
2016-12-07T03:28:34.968Z,-5
2016-12-07T03:29:34.919Z,-4.87
2016-12-07T03:30:35.174Z,-5.04
2016-12-07T03:31:35.132Z,-4.92
2016-12-07T03:32:35.088Z,-4.93
2016-12-07T03:33:35.043Z,-4.93
2016-12-07T03:34:35.000Z,-4.9
2016-12-07T03:35:34.955Z,-4.83
2016-12-07T03:36:34.911Z,-4.75
2016-12-07T03:37:34.866Z,-4.85
2016-12-07T03:38:34.520Z,-4.81
2016-12-07T03:39:34.775Z,-4.79
2016-12-07T03:40:34.731Z,-4.71
2016-12-07T03:41:34.384Z,-4.72
2016-12-07T03:42:34.644Z,-4.69
2016-12-07T03:43:34.297Z,-4.71
2016-12-07T03:44:34.553Z,-4.58
2016-12-07T03:45:34.511Z,-4.57
2016-12-07T03:46:34.464Z,-4.51
2016-12-07T03:47:34.119Z,-4.53
2016-12-07T03:48:34.075Z,-4.36
2016-12-07T03:49:34.332Z,-4.39
2016-12-07T03:50:34.287Z,-4.39
2016-12-07T03:51:33.941Z,-4.33
2016-12-07T03:52:33.898Z,-4.32
2016-12-07T03:53:33.852Z,-4.3
2016-12-07T03:54:34.111Z,-4.28
2016-12-07T03:55:33.767Z,-4.24
2016-12-07T03:56:34.024Z,-4.2
2016-12-07T03:57:33.978Z,-4.2
2016-12-07T03:58:33.934Z,-4.22
2016-12-07T03:59:33.887Z,-4.3
2016-12-07T04:00:33.546Z,-4.28
2016-12-07T04:01:33.798Z,-4.2
2016-12-07T04:02:33.481Z,-4.21
2016-12-07T04:03:33.411Z,-4.25
2016-12-07T04:04:33.667Z,-4.21
2016-12-07T04:05:33.623Z,-4.28
2016-12-07T04:06:33.577Z,-4.25
2016-12-07T04:07:33.231Z,-4.28
2016-12-07T04:08:33.490Z,-4.25
2016-12-07T04:09:33.446Z,-4.18
2016-12-07T04:10:33.098Z,-4.12
2016-12-07T04:11:33.055Z,-4.14
2016-12-07T04:12:33.314Z,-4.11
2016-12-07T04:13:33.269Z,-3.94
2016-12-07T04:14:32.948Z,-3.88
2016-12-07T04:15:32.877Z,-3.94
2016-12-07T04:16:32.832Z,-3.9
2016-12-07T04:17:33.118Z,-3.72
2016-12-07T04:18:33.046Z,-3.72
2016-12-07T04:19:32.701Z,-3.64
2016-12-07T04:20:32.962Z,-3.63
2016-12-07T04:21:32.918Z,-3.62
2016-12-07T04:22:32.870Z,-3.54
2016-12-07T04:23:32.825Z,-3.52
2016-12-07T04:24:32.783Z,-3.38
2016-12-07T04:25:32.436Z,-3.45
2016-12-07T04:26:32.692Z,-3.42
2016-12-07T04:27:32.649Z,-3.38
2016-12-07T04:28:32.604Z,-3.48
2016-12-07T04:29:32.561Z,-3.38
2016-12-07T04:30:32.521Z,-3.35
2016-12-07T04:31:32.473Z,-3.3
2016-12-07T04:32:32.431Z,-3.25
2016-12-07T04:33:32.384Z,-3.31
2016-12-07T04:34:32.038Z,-3.27
2016-12-07T04:35:32.298Z,-3.24
2016-12-07T04:36:32.253Z,-3.21
2016-12-07T04:37:31.907Z,-3.12
2016-12-07T04:38:31.860Z,-3.17
2016-12-07T04:39:32.128Z,-3.14
2016-12-07T04:40:31.774Z,-3.06
2016-12-07T04:41:32.038Z,-3
2016-12-07T04:42:31.987Z,-3.03
2016-12-07T04:43:31.642Z,-3.02
2016-12-07T04:44:31.899Z,-2.97
2016-12-07T04:45:31.859Z,-2.97
2016-12-07T04:46:31.813Z,-2.99
2016-12-07T04:47:31.467Z,-2.89
2016-12-07T04:48:31.725Z,-2.99
2016-12-07T04:49:31.379Z,-3.02
2016-12-07T04:50:31.333Z,-2.85
2016-12-07T04:51:31.595Z,-2.91
2016-12-07T04:52:31.551Z,-2.94
2016-12-07T04:53:31.508Z,-2.82
2016-12-07T04:54:31.463Z,-2.78
2016-12-07T04:55:31.419Z,-2.84
2016-12-07T04:56:31.387Z,-2.74
2016-12-07T04:57:31.333Z,-2.77
2016-12-07T04:58:31.290Z,-2.67
2016-12-07T04:59:30.942Z,-2.73
2016-12-07T05:00:30.899Z,-2.7
2016-12-07T05:01:31.155Z,-2.64
2016-12-07T05:02:31.112Z,-2.67
2016-12-07T05:03:30.765Z,-2.58
2016-12-07T05:04:31.033Z,-2.56
2016-12-07T05:05:30.679Z,-2.61
2016-12-07T05:06:30.939Z,-2.5
2016-12-07T05:07:30.894Z,-2.49
2016-12-07T05:08:30.849Z,-2.46
2016-12-07T05:09:30.807Z,-2.48
2016-12-07T05:10:30.763Z,-2.34
2016-12-07T05:11:30.718Z,-2.32
2016-12-07T05:12:30.674Z,-2.23
2016-12-07T05:13:30.330Z,-2.29
2016-12-07T05:14:30.585Z,-2.29
2016-12-07T05:15:30.542Z,-2.16
2016-12-07T05:16:30.498Z,-2.18
2016-12-07T05:17:30.456Z,-2.2
2016-12-07T05:18:30.412Z,-2.12
2016-12-07T05:19:30.066Z,-2.16
2016-12-07T05:20:30.324Z,-2.15
2016-12-07T05:21:30.283Z,-2.18
2016-12-07T05:22:30.237Z,-2.08
2016-12-07T05:23:30.195Z,-2.16
2016-12-07T05:24:30.151Z,-2.12
2016-12-07T05:25:29.804Z,-2.18
2016-12-07T05:26:30.069Z,-2.13
2016-12-07T05:27:30.024Z,-2.13
2016-12-07T05:28:29.977Z,-2.13
2016-12-07T05:29:29.934Z,-2.06
2016-12-07T05:30:29.586Z,-2.1
2016-12-07T05:31:29.544Z,-2.06
2016-12-07T05:32:29.804Z,-2.06
2016-12-07T05:33:29.458Z,-1.95
2016-12-07T05:34:29.724Z,-2.09
2016-12-07T05:35:29.670Z,-1.98
2016-12-07T05:36:29.627Z,-2.09
2016-12-07T05:37:29.587Z,-2.06
2016-12-07T05:38:29.544Z,-2
2016-12-07T05:39:29.499Z,-1.98
2016-12-07T05:40:29.454Z,-2.1
2016-12-07T05:41:29.411Z,-2.02
2016-12-07T05:42:29.367Z,-1.97
2016-12-07T05:43:29.022Z,-2.09
2016-12-07T05:44:28.977Z,-1.95
2016-12-07T05:45:29.245Z,-1.98
2016-12-07T05:46:29.197Z,-2.1
2016-12-07T05:47:29.151Z,-2
2016-12-07T05:48:28.805Z,-2.03
2016-12-07T05:49:29.061Z,-1.97
2016-12-07T05:50:28.717Z,-1.95
2016-12-07T05:51:28.977Z,-1.94
2016-12-07T05:52:28.930Z,-1.94
2016-12-07T05:53:28.893Z,-1.97
2016-12-07T05:54:28.544Z,-2
2016-12-07T05:55:28.503Z,-1.94
2016-12-07T05:56:28.461Z,-2
2016-12-07T05:57:28.715Z,-1.94
2016-12-07T05:58:28.673Z,-2
2016-12-07T05:59:28.327Z,-1.95
2016-12-07T06:00:28.584Z,-1.91
2016-12-07T06:01:28.540Z,-1.95
2016-12-07T06:02:28.499Z,-1.92
2016-12-07T06:03:28.155Z,-1.95
2016-12-07T06:04:28.411Z,-1.92
2016-12-07T06:05:28.369Z,-1.95
2016-12-07T06:06:28.323Z,-1.92
2016-12-07T06:07:28.280Z,-1.94
2016-12-07T06:08:27.936Z,-1.94
2016-12-07T06:09:27.893Z,-1.87
2016-12-07T06:10:28.155Z,-1.91
2016-12-07T06:11:28.108Z,-1.82
2016-12-07T06:12:28.064Z,-1.92
2016-12-07T06:13:28.036Z,-1.94
2016-12-07T06:14:27.976Z,-1.92
2016-12-07T06:15:27.932Z,-1.87
2016-12-07T06:16:27.586Z,-1.9
2016-12-07T06:17:27.847Z,-1.9
2016-12-07T06:18:27.505Z,-1.9
2016-12-07T06:19:27.758Z,-1.82
2016-12-07T06:20:27.717Z,-1.94
2016-12-07T06:21:27.675Z,-1.9
2016-12-07T06:22:27.629Z,-1.92
2016-12-07T06:23:27.587Z,-1.88
2016-12-07T06:24:27.544Z,-1.85
2016-12-07T06:25:27.506Z,-1.94
2016-12-07T06:26:27.155Z,-1.79
2016-12-07T06:27:27.417Z,-1.92
2016-12-07T06:28:27.368Z,-1.88
2016-12-07T06:29:27.326Z,-1.8
2016-12-07T06:30:26.979Z,-1.84
2016-12-07T06:31:27.236Z,-1.88
2016-12-07T06:32:26.893Z,-1.87
2016-12-07T06:33:27.151Z,-1.92
2016-12-07T06:34:27.108Z,-1.91
2016-12-07T06:35:27.066Z,-1.91
2016-12-07T06:36:27.021Z,-1.9
2016-12-07T06:37:26.976Z,-1.85
2016-12-07T06:38:26.934Z,-1.91
2016-12-07T06:39:26.912Z,-1.91
2016-12-07T06:40:26.848Z,-1.84
2016-12-07T06:41:26.804Z,-1.92
2016-12-07T06:42:26.760Z,-1.9
2016-12-07T06:43:26.719Z,-1.91
2016-12-07T06:44:26.373Z,-1.92
2016-12-07T06:45:26.632Z,-1.82
2016-12-07T06:46:26.589Z,-1.94
2016-12-07T06:47:26.546Z,-1.88
2016-12-07T06:48:26.203Z,-1.85
2016-12-07T06:49:26.458Z,-1.92
2016-12-07T06:51:26.373Z,-1.97
2016-12-07T06:52:26.330Z,-1.95
2016-12-07T06:53:26.283Z,-1.95
2016-12-07T06:54:26.243Z,-1.9
2016-12-07T06:55:26.204Z,-1.9
2016-12-07T06:56:26.157Z,-1.92
2016-12-07T06:57:25.811Z,-1.92
2016-12-07T06:58:26.067Z,-1.94
2016-12-07T06:59:26.024Z,-1.92
2016-12-07T07:00:25.982Z,-2.05
2016-12-07T07:01:25.940Z,-1.97
2016-12-07T07:02:25.897Z,-1.95
2016-12-07T07:03:25.853Z,-1.9
2016-12-07T07:04:25.507Z,-1.94
2016-12-07T07:05:25.766Z,-1.88
2016-12-07T07:06:25.720Z,-1.88
2016-12-07T07:07:25.376Z,-1.91
2016-12-07T07:08:25.635Z,-1.91
2016-12-07T07:09:25.593Z,-1.92
2016-12-07T07:10:25.549Z,-1.92
2016-12-07T07:11:25.508Z,-1.87
2016-12-07T07:12:25.920Z,-1.91
2016-12-07T07:13:25.877Z,-1.95
2016-12-07T07:14:25.831Z,-1.91
2016-12-07T07:15:25.486Z,-1.92
2016-12-07T07:16:25.445Z,-1.82
2016-12-07T07:17:25.399Z,-1.82
2016-12-07T07:18:25.662Z,-1.77
2016-12-07T07:19:25.613Z,-1.76
2016-12-07T07:20:25.598Z,-1.72
2016-12-07T07:21:25.533Z,-1.74
2016-12-07T07:22:25.490Z,-1.66
2016-12-07T07:23:25.142Z,-1.62
2016-12-07T07:24:25.400Z,-1.58
2016-12-07T07:25:25.358Z,-1.61
2016-12-07T07:26:25.007Z,-1.54
2016-12-07T07:27:25.271Z,-1.54
2016-12-07T07:28:25.231Z,-1.58
2016-12-07T07:29:24.908Z,-1.48
2016-12-07T07:30:25.141Z,-1.51
2016-12-07T07:31:25.103Z,-1.48
2016-12-07T07:32:25.056Z,-1.45
2016-12-07T07:33:25.008Z,-1.55
2016-12-07T07:34:24.973Z,-1.49
2016-12-07T07:35:24.947Z,-1.38
2016-12-07T07:36:24.579Z,-1.31
2016-12-07T07:37:24.536Z,-1.4
2016-12-07T07:38:24.799Z,-1.41
2016-12-07T07:39:24.751Z,-1.35
2016-12-07T07:40:24.408Z,-1.38
2016-12-07T07:41:24.665Z,-1.38
2016-12-07T07:42:24.628Z,-1.41
2016-12-07T07:43:24.585Z,-1.4
2016-12-07T07:44:24.235Z,-1.33
2016-12-07T07:45:23.894Z,-1.34
2016-12-07T07:46:24.147Z,-1.31
2016-12-07T07:47:24.107Z,-1.23
2016-12-07T07:48:24.374Z,-1.3
2016-12-07T07:49:24.021Z,-1.19
2016-12-07T07:50:24.283Z,-1.28
2016-12-07T07:51:24.235Z,-1.17
2016-12-07T07:52:23.590Z,-1.17
2016-12-07T07:53:24.149Z,-1.31
2016-12-07T07:54:24.109Z,-1.15
2016-12-07T07:55:24.064Z,-1.19
2016-12-07T07:56:23.720Z,-1.09
2016-12-07T07:57:23.978Z,-1.2
2016-12-07T07:58:23.934Z,-1.02
2016-12-07T07:59:23.895Z,-1.15
2016-12-07T08:00:23.546Z,-1.16
2016-12-07T08:01:23.504Z,-1.02
2016-12-07T08:02:23.771Z,-0.91
2016-12-07T08:03:23.725Z,-0.97
2016-12-07T08:04:23.677Z,-0.82
2016-12-07T08:05:23.333Z,-0.91
2016-12-07T08:06:23.593Z,-0.73
2016-12-07T08:07:23.552Z,-0.75
2016-12-07T08:08:23.506Z,-0.76
2016-12-07T08:09:23.462Z,-0.73
2016-12-07T08:10:23.425Z,-0.73
2016-12-07T08:11:23.376Z,-0.64
2016-12-07T08:12:23.036Z,-0.69
2016-12-07T08:13:22.685Z,-0.62
2016-12-07T08:14:22.951Z,-0.72
2016-12-07T08:15:22.608Z,-0.72
2016-12-07T08:16:22.861Z,-0.75
2016-12-07T08:17:23.123Z,-0.72
2016-12-07T08:18:22.477Z,-0.58
2016-12-07T08:19:23.037Z,-0.6
2016-12-07T08:20:22.997Z,-0.46
2016-12-07T08:21:22.650Z,-0.43
2016-12-07T08:22:22.602Z,-0.37
2016-12-07T08:23:22.562Z,-0.34
2016-12-07T08:24:22.518Z,-0.18
2016-12-07T08:25:22.485Z,-0.19
2016-12-07T08:26:22.434Z,-0.29
2016-12-07T08:27:22.394Z,-0.26
2016-12-07T08:28:22.653Z,-0.18
2016-12-07T08:29:22.306Z,-0.15
2016-12-07T08:30:22.565Z,-0.08
2016-12-07T08:31:22.527Z,-0.05
2016-12-07T08:32:22.480Z,-0.04
2016-12-07T08:33:22.443Z,-0.03
2016-12-07T08:34:22.403Z,0.02
2016-12-07T08:35:22.355Z,0.13
2016-12-07T08:36:22.320Z,0.07
2016-12-07T08:37:21.970Z,0.13
2016-12-07T08:38:21.636Z,0.11
2016-12-07T08:39:21.887Z,0.2
2016-12-07T08:40:21.840Z,0.11
2016-12-07T08:41:22.100Z,0.24
2016-12-07T08:42:22.059Z,0.18
2016-12-07T08:43:22.017Z,0.23
2016-12-07T08:44:21.985Z,0.24
2016-12-07T08:45:21.935Z,0.24
2016-12-07T08:46:21.587Z,0.24
2016-12-07T08:47:21.546Z,0.11
2016-12-07T08:48:21.201Z,0.11
2016-12-07T08:49:21.462Z,0.23
2016-12-07T08:50:21.723Z,0.21
2016-12-07T08:51:21.677Z,0.23
2016-12-07T08:52:21.635Z,0.15
2016-12-07T08:53:21.597Z,0.13
2016-12-07T08:54:21.550Z,0.14
2016-12-07T08:55:21.515Z,0.24
2016-12-07T08:56:21.200Z,0.29
2016-12-07T08:57:21.425Z,0.31
2016-12-07T08:58:21.385Z,0.24
2016-12-07T08:59:21.337Z,0.28
2016-12-07T09:00:20.997Z,0.17
2016-12-07T09:01:21.257Z,0.28
2016-12-07T09:02:20.915Z,0.29
2016-12-07T09:03:20.868Z,0.32
2016-12-07T09:04:20.830Z,0.42
2016-12-07T09:05:20.800Z,0.38
2016-12-07T09:06:21.040Z,0.29
2016-12-07T09:07:21.006Z,0.41
2016-12-07T09:08:20.964Z,0.38
2016-12-07T09:09:20.631Z,0.46
2016-12-07T09:10:20.880Z,0.47
2016-12-07T09:11:20.834Z,0.44
2016-12-07T09:12:20.491Z,0.53
2016-12-07T09:13:20.750Z,0.6
2016-12-07T09:14:20.409Z,0.73
2016-12-07T09:15:20.678Z,0.65
2016-12-07T09:16:20.624Z,0.78
2016-12-07T09:17:20.582Z,0.72
2016-12-07T09:18:20.238Z,0.86
2016-12-07T09:19:20.498Z,0.87
2016-12-07T09:20:20.455Z,0.87
2016-12-07T09:21:20.417Z,0.9
2016-12-07T09:22:20.370Z,0.93
2016-12-07T09:23:20.028Z,0.98
2016-12-07T09:24:20.291Z,1.04
2016-12-07T09:25:20.241Z,1.08
2016-12-07T09:26:19.900Z,1.09
2016-12-07T09:27:20.167Z,1.08
2016-12-07T09:28:19.814Z,1.11
2016-12-07T09:29:20.075Z,1.2
2016-12-07T09:30:19.736Z,1.22
2016-12-07T09:31:19.692Z,1.24
2016-12-07T09:32:19.951Z,1.26
2016-12-07T09:33:19.609Z,1.2
2016-12-07T09:34:19.868Z,1.26
2016-12-07T09:35:19.827Z,1.26
2016-12-07T09:36:19.787Z,1.22
2016-12-07T09:37:19.746Z,1.22
2016-12-07T09:38:19.097Z,1.3
2016-12-07T09:39:19.051Z,1.32
2016-12-07T09:40:19.315Z,1.4
2016-12-07T09:41:19.281Z,1.37
2016-12-07T09:42:19.535Z,1.4
2016-12-07T09:43:19.492Z,1.44
2016-12-07T09:44:19.453Z,1.4
2016-12-07T09:45:19.107Z,1.42
2016-12-07T09:46:19.065Z,1.42
2016-12-07T09:47:19.326Z,1.41
2016-12-07T09:48:18.987Z,1.36
2016-12-07T09:49:18.942Z,1.37
2016-12-07T09:50:19.198Z,1.47
2016-12-07T09:51:19.162Z,1.42
2016-12-07T09:52:19.118Z,1.48
2016-12-07T09:53:19.072Z,1.44
2016-12-07T09:54:18.733Z,1.51
2016-12-07T09:55:18.994Z,1.48
2016-12-07T09:56:18.650Z,1.52
2016-12-07T09:57:18.604Z,1.62
2016-12-07T09:58:18.567Z,1.55
2016-12-07T09:59:18.831Z,1.48
2016-12-07T10:00:18.485Z,1.52
2016-12-07T10:01:18.746Z,1.52
2016-12-07T10:02:18.712Z,1.51
2016-12-07T10:03:18.703Z,1.47
2016-12-07T10:04:18.323Z,1.58
2016-12-07T10:05:18.281Z,1.47
2016-12-07T10:06:17.935Z,1.47
2016-12-07T10:07:18.499Z,1.47
2016-12-07T10:08:18.150Z,1.51
2016-12-07T10:09:18.115Z,1.48
2016-12-07T10:10:18.370Z,1.54
2016-12-07T10:11:18.030Z,1.51
2016-12-07T10:12:18.287Z,1.59
2016-12-07T10:13:18.256Z,1.59
2016-12-07T10:14:18.206Z,1.59
2016-12-07T10:15:18.169Z,1.59
2016-12-07T10:16:18.120Z,1.62
2016-12-07T10:17:17.778Z,1.63
2016-12-07T10:18:17.743Z,1.6
2016-12-07T10:19:17.390Z,1.62
2016-12-07T10:20:17.656Z,1.62
2016-12-07T10:21:17.925Z,1.6
2016-12-07T10:22:17.573Z,1.68
2016-12-07T10:23:17.541Z,1.69
2016-12-07T10:24:17.488Z,1.86
2016-12-07T10:25:17.749Z,1.91
2016-12-07T10:26:17.708Z,1.86
2016-12-07T10:27:17.668Z,1.7
2016-12-07T10:28:17.323Z,1.73
2016-12-07T10:29:17.581Z,1.8
2016-12-07T10:30:17.561Z,1.81
2016-12-07T10:31:17.501Z,1.81
2016-12-07T10:32:17.478Z,1.8
2016-12-07T10:33:17.116Z,1.95
2016-12-07T10:34:17.379Z,2
2016-12-07T10:35:17.337Z,1.91
2016-12-07T10:36:17.297Z,1.95
2016-12-07T10:37:17.256Z,1.95
2016-12-07T10:38:16.912Z,1.95
2016-12-07T10:39:17.175Z,1.87
2016-12-07T10:40:17.131Z,1.9
2016-12-07T10:41:17.092Z,1.84
2016-12-07T10:42:16.743Z,1.87
2016-12-07T10:43:16.705Z,1.91
2016-12-07T10:44:16.362Z,2.02
2016-12-07T10:45:16.921Z,2.02
2016-12-07T10:46:16.595Z,2.1
2016-12-07T10:47:16.843Z,2.02
2016-12-07T10:48:16.516Z,2.09
2016-12-07T10:49:16.767Z,2.05
2016-12-07T10:50:16.415Z,2.07
2016-12-07T10:51:16.686Z,2.06
2016-12-07T10:52:16.337Z,2.18
2016-12-07T10:53:16.591Z,2.27
2016-12-07T10:54:16.251Z,2.28
2016-12-07T10:55:16.524Z,2.3
2016-12-07T10:56:16.478Z,2.27
2016-12-07T10:57:16.430Z,2.31
2016-12-07T10:58:16.091Z,2.27
2016-12-07T10:59:16.049Z,2.23
2016-12-07T11:00:16.007Z,2.39
2016-12-07T11:01:15.660Z,2.42
2016-12-07T11:02:15.926Z,2.34
2016-12-07T11:03:15.886Z,2.43
2016-12-07T11:04:16.142Z,2.45
2016-12-07T11:05:15.801Z,2.46
2016-12-07T11:06:16.061Z,2.48
2016-12-07T11:07:16.016Z,2.56
2016-12-07T11:08:15.986Z,2.59
2016-12-07T11:09:15.934Z,2.59
2016-12-07T11:10:15.896Z,2.6
2016-12-07T11:11:15.859Z,2.53
2016-12-07T11:12:15.512Z,2.56
2016-12-07T11:13:15.777Z,2.46
2016-12-07T11:14:15.452Z,2.49
2016-12-07T11:15:15.691Z,2.49
2016-12-07T11:16:15.651Z,2.49
2016-12-07T11:17:15.317Z,2.48
2016-12-07T11:18:15.269Z,2.6
2016-12-07T11:19:15.530Z,2.49
2016-12-07T11:20:15.192Z,2.36
2016-12-07T11:21:15.145Z,2.3
2016-12-07T11:22:15.407Z,2.3
2016-12-07T11:23:15.365Z,2.27
2016-12-07T11:24:15.328Z,2.28
2016-12-07T11:25:14.680Z,2.24
2016-12-07T11:26:14.953Z,2.28
2016-12-07T11:27:14.899Z,2.24
2016-12-07T11:28:15.159Z,2.23
2016-12-07T11:29:14.821Z,2.18
2016-12-07T11:30:14.779Z,2.07
2016-12-07T11:31:14.743Z,2.09
2016-12-07T11:32:14.996Z,2.06
2016-12-07T11:33:14.961Z,2.05
2016-12-07T11:34:14.927Z,2
2016-12-07T11:35:14.267Z,2.05
2016-12-07T11:36:14.532Z,2.06
2016-12-07T11:37:14.790Z,2.09
2016-12-07T11:38:14.751Z,2.09
2016-12-07T11:39:14.716Z,2.07
2016-12-07T11:40:14.372Z,2.07
2016-12-07T11:41:14.629Z,2.25
2016-12-07T11:42:14.585Z,2.35
2016-12-07T11:43:14.545Z,2.53
2016-12-07T11:44:14.509Z,2.46
2016-12-07T11:45:14.159Z,2.56
2016-12-07T11:46:14.427Z,2.6
2016-12-07T11:47:14.382Z,2.63
2016-12-07T11:48:14.039Z,2.66
2016-12-07T11:49:14.299Z,2.63
2016-12-07T11:50:14.259Z,2.66
2016-12-07T11:51:13.913Z,2.72
2016-12-07T11:52:14.178Z,2.72
2016-12-07T11:53:14.138Z,2.61
2016-12-07T11:54:13.792Z,2.63
2016-12-07T11:55:14.066Z,2.72
2016-12-07T11:56:14.014Z,2.61
2016-12-07T11:57:13.972Z,2.67
2016-12-07T11:58:13.627Z,2.69
2016-12-07T11:59:13.593Z,2.77
2016-12-07T12:00:13.547Z,2.79
2016-12-07T12:01:13.513Z,2.75
2016-12-07T12:02:13.769Z,2.84
2016-12-07T12:03:13.431Z,2.85
2016-12-07T12:04:13.386Z,2.99
2016-12-07T12:05:13.058Z,3.03
2016-12-07T12:06:13.611Z,2.99
2016-12-07T12:07:13.271Z,2.97
2016-12-07T12:08:13.223Z,2.93
2016-12-07T12:09:13.183Z,3.03
2016-12-07T12:10:13.445Z,2.92
2016-12-07T12:11:13.408Z,2.93
2016-12-07T12:12:13.360Z,2.9
2016-12-07T12:13:13.324Z,2.82
2016-12-07T12:14:13.280Z,2.93
2016-12-07T12:15:13.248Z,2.9
2016-12-07T12:16:12.896Z,2.93
2016-12-07T12:17:12.856Z,2.92
2016-12-07T12:18:12.840Z,2.99
2016-12-07T12:19:12.774Z,2.92
2016-12-07T12:20:12.752Z,3.03
2016-12-07T12:21:12.996Z,3
2016-12-07T12:22:12.665Z,3.13
2016-12-07T12:23:12.910Z,3.1
2016-12-07T12:24:12.873Z,3
2016-12-07T12:25:12.846Z,2.99
2016-12-07T12:26:12.804Z,2.9
2016-12-07T12:27:12.445Z,2.93
2016-12-07T12:28:12.714Z,2.87
2016-12-07T12:29:12.373Z,2.93
2016-12-07T12:30:12.329Z,2.85
2016-12-07T12:31:12.591Z,2.9
2016-12-07T12:32:12.551Z,2.84
2016-12-07T12:33:12.509Z,2.84
2016-12-07T12:34:12.165Z,2.74
2016-12-07T12:35:12.124Z,2.78
2016-12-07T12:36:12.391Z,2.82
2016-12-07T12:37:11.744Z,2.84
2016-12-07T12:38:12.003Z,2.9
2016-12-07T12:39:11.962Z,2.82
2016-12-07T12:40:11.920Z,2.89
2016-12-07T12:41:12.182Z,2.95
2016-12-07T12:42:12.147Z,3
2016-12-07T12:43:12.098Z,2.96
2016-12-07T12:44:12.062Z,2.97
2016-12-07T12:45:12.025Z,2.95
2016-12-07T12:46:11.978Z,3.02
2016-12-07T12:47:11.946Z,2.93
2016-12-07T12:48:11.899Z,2.9
2016-12-07T12:49:11.855Z,2.89
2016-12-07T12:50:11.819Z,2.96
2016-12-07T12:51:11.478Z,2.99
2016-12-07T12:52:11.743Z,3.05
2016-12-07T12:53:11.694Z,2.97
2016-12-07T12:54:11.656Z,2.95
2016-12-07T12:55:11.315Z,2.85
2016-12-07T12:56:11.281Z,2.97
2016-12-07T12:57:11.232Z,2.9
2016-12-07T12:58:11.527Z,2.93
2016-12-07T12:59:11.455Z,2.93
2016-12-07T13:00:11.107Z,2.92
2016-12-07T13:01:11.372Z,2.92
2016-12-07T13:02:11.031Z,2.93
2016-12-07T13:03:11.290Z,2.92
2016-12-07T13:04:10.949Z,2.89
2016-12-07T13:05:11.203Z,2.78
2016-12-07T13:06:10.565Z,2.81